Time;durP1;ratioP1;P1;durP2;ratioP2;P2;SDS_P1;SDS_P2;PMS_P1;PMS_P2;Temp;Humidity;BMP_temperature;BMP_pressure;BME280_temperature;BME280_humidity;BME280_pressure;Samples;Min_cycle;Max_cycle;Signal;HPM_P1;HPM_P2
2021/01/22 00:01:25;;;;;;;10.85;6.65;;;5.90;99.90;;;;;;5024615;28;20065;-92
2021/01/22 00:03:53;;;;;;;11.95;6.32;;;5.90;99.90;;;;;;5037546;28;20084;-92
2021/01/22 00:06:19;;;;;;;13.60;6.60;;;5.90;99.90;;;;;;5032908;28;20059;-92
2021/01/22 00:08:46;;;;;;;14.30;9.20;;;5.80;99.90;;;;;;5000445;28;20053;-92
2021/01/22 00:11:14;;;;;;;16.10;12.93;;;5.90;99.90;;;;;;5032802;28;20040;-92
2021/01/22 00:13:40;;;;;;;27.88;13.57;;;5.80;99.90;;;;;;5013547;28;20634;-92
2021/01/22 00:16:07;;;;;;;21.63;17.38;;;5.80;99.90;;;;;;5022581;28;20076;-92
2021/01/22 00:18:34;;;;;;;16.30;13.60;;;5.80;99.90;;;;;;5037400;28;20059;-92
2021/01/22 00:21:02;;;;;;;20.35;18.23;;;5.80;99.90;;;;;;5033538;28;20040;-92
2021/01/22 00:23:29;;;;;;;14.55;9.02;;;5.80;99.90;;;;;;5025407;28;20118;-93
2021/01/22 00:25:56;;;;;;;10.80;8.10;;;5.80;99.90;;;;;;5021242;28;20045;-93
2021/01/22 00:28:26;;;;;;;10.80;6.05;;;5.70;99.90;;;;;;5009632;28;20054;-92
2021/01/22 00:30:53;;;;;;;10.35;6.47;;;5.70;99.90;;;;;;5024033;28;20041;-92
2021/01/22 00:33:45;;;;;;;9.45;6.28;;;5.70;99.90;;;;;;5023963;28;20072;-92
2021/01/22 00:36:13;;;;;;;11.77;6.57;;;5.70;99.90;;;;;;5016712;28;20045;-92
2021/01/22 00:38:43;;;;;;;11.40;6.68;;;5.60;99.90;;;;;;5033345;28;20387;-92
2021/01/22 00:41:10;;;;;;;10.52;5.28;;;5.60;99.90;;;;;;5034005;28;20052;-92
2021/01/22 00:43:37;;;;;;;8.52;5.28;;;5.50;99.90;;;;;;5031507;28;20068;-92
2021/01/22 00:46:04;;;;;;;9.55;4.45;;;5.50;99.90;;;;;;5032683;28;20053;-92
2021/01/22 00:48:37;;;;;;;11.40;5.15;;;5.50;99.90;;;;;;5033765;28;20056;-92
2021/01/22 00:51:04;;;;;;;7.53;4.70;;;5.50;99.90;;;;;;5035515;28;20041;-92
2021/01/22 00:53:31;;;;;;;17.60;5.30;;;5.40;99.90;;;;;;5025294;28;20048;-92
2021/01/22 00:55:57;;;;;;;9.32;4.68;;;5.40;99.90;;;;;;5020709;28;20099;-92
2021/01/22 00:58:24;;;;;;;9.15;5.38;;;5.40;99.90;;;;;;5029542;28;20422;-93
2021/01/22 01:00:59;;;;;;;7.13;5.15;;;5.40;99.90;;;;;;5031811;28;20495;-92
2021/01/22 01:03:33;;;;;;;7.40;4.05;;;5.30;99.90;;;;;;5032326;28;20395;-92
2021/01/22 01:05:59;;;;;;;7.03;3.88;;;5.30;99.90;;;;;;5032869;28;20048;-92
2021/01/22 01:08:27;;;;;;;7.32;3.65;;;5.20;99.90;;;;;;5023618;28;20052;-92
2021/01/22 01:11:03;;;;;;;;;;;;;;;;;;;;;
2021/01/22 01:13:37;;;;;;;9.27;2.35;;;5.20;99.90;;;;;;5003256;28;20082;-92
2021/01/22 01:16:12;;;;;;;7.40;2.63;;;5.20;99.90;;;;;;4991449;28;20546;-92
2021/01/22 01:18:45;;;;;;;7.13;2.88;;;5.20;99.90;;;;;;5011325;28;20544;-92
2021/01/22 01:21:24;;;;;;;6.28;2.20;;;5.20;99.90;;;;;;4974016;28;20053;-93
2021/01/22 01:23:51;;;;;;;6.43;2.00;;;5.20;99.90;;;;;;5016981;28;20056;-92
2021/01/22 01:26:20;;;;;;;6.50;2.00;;;5.20;99.90;;;;;;5018677;28;20511;-93
2021/01/22 01:28:50;;;;;;;5.18;1.55;;;5.20;99.90;;;;;;5011050;28;20052;-93
2021/01/22 01:31:34;;;;;;;10.50;1.60;;;5.30;99.90;;;;;;4982183;28;21025;-92
2021/01/22 01:34:05;;;;;;;8.55;1.27;;;5.30;99.90;;;;;;4986333;28;20044;-92
2021/01/22 01:36:39;;;;;;;8.20;1.27;;;5.30;99.90;;;;;;5035240;28;20045;-92
2021/01/22 01:39:29;;;;;;;8.35;1.80;;;5.30;99.90;;;;;;4943616;28;20061;-91
2021/01/22 01:42:03;;;;;;;4.07;1.45;;;5.40;99.90;;;;;;4991197;28;20397;-92
2021/01/22 01:44:40;;;;;;;7.70;1.77;;;5.40;99.90;;;;;;4959625;28;20161;-92
2021/01/22 01:47:15;;;;;;;5.07;1.20;;;5.40;99.90;;;;;;4962675;28;20053;-92
2021/01/22 01:50:04;;;;;;;7.50;1.38;;;5.40;99.90;;;;;;4945266;28;20050;-92
2021/01/22 01:52:34;;;;;;;8.95;1.50;;;5.40;99.90;;;;;;4930314;29;20048;-92
2021/01/22 01:55:01;;;;;;;8.07;1.58;;;5.50;99.90;;;;;;4961717;28;20073;-92
2021/01/22 01:57:27;;;;;;;7.05;1.30;;;5.40;99.90;;;;;;4987612;28;20103;-92
2021/01/22 01:59:55;;;;;;;6.00;1.00;;;5.40;99.90;;;;;;5029313;28;20051;-92
2021/01/22 02:02:22;;;;;;;8.23;1.30;;;5.40;99.90;;;;;;5025716;28;20056;-92
2021/01/22 02:04:49;;;;;;;8.20;1.58;;;5.40;99.90;;;;;;5018680;28;20041;-92
2021/01/22 02:07:16;;;;;;;4.82;1.00;;;5.40;99.90;;;;;;5026367;28;20049;-92
2021/01/22 02:09:42;;;;;;;6.75;1.45;;;5.40;99.90;;;;;;5035096;28;20049;-92
2021/01/22 02:12:10;;;;;;;6.60;1.35;;;5.40;99.90;;;;;;4996944;28;20550;-92
2021/01/22 02:14:41;;;;;;;8.18;1.42;;;5.40;99.90;;;;;;5019618;28;20139;-92
2021/01/22 02:17:08;;;;;;;11.10;1.48;;;5.30;99.90;;;;;;5032090;28;20044;-92
2021/01/22 02:19:56;;;;;;;4.28;1.20;;;5.30;99.90;;;;;;5030639;28;20041;-92
2021/01/22 02:22:22;;;;;;;6.32;1.38;;;5.30;99.90;;;;;;5019414;28;20045;-91
2021/01/22 02:24:52;;;;;;;6.78;1.20;;;5.30;99.90;;;;;;5033325;28;20095;-92
2021/01/22 02:27:19;;;;;;;6.13;1.30;;;5.20;99.90;;;;;;5030386;28;20045;-92
2021/01/22 02:29:48;;;;;;;5.68;1.52;;;5.20;99.90;;;;;;5032212;28;20033;-91
2021/01/22 02:32:16;;;;;;;7.03;1.77;;;5.10;99.90;;;;;;5034557;28;20152;-92
2021/01/22 02:34:45;;;;;;;12.90;1.30;;;5.10;99.90;;;;;;5029314;28;20079;-91
2021/01/22 02:37:17;;;;;;;7.75;1.30;;;5.10;99.90;;;;;;5036312;28;20597;-92
2021/01/22 02:39:50;;;;;;;11.45;1.73;;;5.20;99.90;;;;;;5037765;28;20500;-91
2021/01/22 02:42:20;;;;;;;11.88;1.50;;;5.10;99.90;;;;;;5033894;28;20044;-91
2021/01/22 02:44:48;;;;;;;12.00;1.95;;;5.10;99.90;;;;;;5025297;28;20084;-91
2021/01/22 02:47:16;;;;;;;9.97;1.63;;;5.10;99.90;;;;;;5022786;28;20040;-92
2021/01/22 02:49:43;;;;;;;8.43;1.40;;;5.10;99.90;;;;;;5031664;28;20048;-92
2021/01/22 02:52:10;;;;;;;10.63;1.77;;;5.20;99.90;;;;;;5033203;28;20056;-92
2021/01/22 02:54:37;;;;;;;11.02;1.92;;;5.10;99.90;;;;;;5017936;28;20053;-92
2021/01/22 02:57:23;;;;;;;6.97;1.75;;;5.10;99.90;;;;;;5028278;28;20055;-93
2021/01/22 02:59:53;;;;;;;7.80;1.80;;;5.10;99.90;;;;;;5011959;28;20077;-92
2021/01/22 03:02:26;;;;;;;8.48;2.00;;;5.10;99.90;;;;;;5004993;28;20052;-92
2021/01/22 03:04:54;;;;;;;10.18;2.10;;;5.10;99.90;;;;;;5029505;28;20064;-93
2021/01/22 03:07:47;;;;;;;9.30;2.03;;;5.20;99.90;;;;;;5025029;28;20049;-93
2021/01/22 03:10:20;;;;;;;14.10;2.35;;;5.10;99.90;;;;;;5034616;28;20041;-92
2021/01/22 03:12:48;;;;;;;9.73;1.98;;;5.10;99.90;;;;;;5036382;28;20122;-93
2021/01/22 03:15:21;;;;;;;13.55;2.40;;;5.10;99.90;;;;;;5024418;28;20041;-92
2021/01/22 03:17:50;;;;;;;8.45;1.88;;;5.10;99.90;;;;;;5034025;28;20060;-91
2021/01/22 03:20:27;;;;;;;6.75;1.83;;;5.10;99.90;;;;;;5027256;28;20052;-92
2021/01/22 03:22:56;;;;;;;10.60;2.55;;;5.10;99.90;;;;;;5019574;28;20475;-92
2021/01/22 03:25:22;;;;;;;14.18;2.03;;;5.10;99.90;;;;;;5002003;28;20067;-92
2021/01/22 03:27:49;;;;;;;13.95;2.45;;;5.10;99.90;;;;;;5011123;28;20060;-92
2021/01/22 03:30:18;;;;;;;9.65;1.88;;;5.10;99.90;;;;;;5035737;28;20067;-92
2021/01/22 03:32:45;;;;;;;8.05;1.85;;;5.10;99.90;;;;;;5033590;28;20546;-92
2021/01/22 03:35:13;;;;;;;11.25;1.88;;;5.10;99.90;;;;;;5034140;28;20068;-92
2021/01/22 03:37:39;;;;;;;8.40;1.98;;;5.10;99.90;;;;;;5032757;28;20045;-91
2021/01/22 03:40:07;;;;;;;15.18;2.92;;;5.20;99.90;;;;;;5031290;28;20045;-92
2021/01/22 03:42:36;;;;;;;11.93;1.90;;;5.20;99.90;;;;;;5037493;28;20072;-92
2021/01/22 03:45:05;;;;;;;8.70;1.92;;;5.20;99.90;;;;;;5032473;28;20490;-91
2021/01/22 03:47:32;;;;;;;11.77;1.95;;;5.20;99.90;;;;;;5032927;28;20049;-92
2021/01/22 03:49:59;;;;;;;9.05;2.22;;;5.20;99.90;;;;;;5024195;28;20045;-92
2021/01/22 03:52:28;;;;;;;14.35;2.00;;;5.10;99.90;;;;;;5031418;28;20044;-92
2021/01/22 03:54:56;;;;;;;6.50;1.88;;;5.10;99.90;;;;;;5037400;28;20135;-91
2021/01/22 03:57:23;;;;;;;7.68;1.70;;;5.00;99.90;;;;;;5033115;28;20045;-92
2021/01/22 03:59:49;;;;;;;10.73;2.05;;;5.00;99.90;;;;;;5031794;28;20051;-92
2021/01/22 04:02:19;;;;;;;14.77;1.95;;;4.90;99.90;;;;;;5034298;28;20147;-91
2021/01/22 04:04:45;;;;;;;13.43;2.35;;;5.00;99.90;;;;;;5023746;28;20060;-92
2021/01/22 04:07:12;;;;;;;8.93;2.00;;;4.90;99.90;;;;;;5032676;28;20071;-92
2021/01/22 04:09:41;;;;;;;9.60;1.90;;;4.90;99.90;;;;;;5034377;28;20451;-91
2021/01/22 04:12:09;;;;;;;11.85;2.10;;;4.90;99.90;;;;;;5034539;28;20108;-92
2021/01/22 04:14:41;;;;;;;12.85;2.63;;;4.90;99.90;;;;;;5010504;28;20042;-92
2021/01/22 04:17:08;;;;;;;9.35;2.13;;;5.00;99.90;;;;;;5032142;28;20041;-92
2021/01/22 04:19:34;;;;;;;7.90;2.80;;;5.00;99.90;;;;;;5023774;28;20068;-92
2021/01/22 04:22:01;;;;;;;11.95;2.67;;;5.00;99.90;;;;;;5029702;28;20045;-92
2021/01/22 04:24:28;;;;;;;10.07;1.80;;;5.00;99.90;;;;;;5034530;28;20045;-92
2021/01/22 04:26:54;;;;;;;9.15;1.80;;;5.00;99.90;;;;;;4992715;28;20542;-92
2021/01/22 04:29:21;;;;;;;10.00;2.20;;;5.00;99.90;;;;;;5013328;28;20400;-92
2021/01/22 04:31:47;;;;;;;8.23;1.67;;;5.00;99.90;;;;;;5028246;28;20124;-92
2021/01/22 04:34:14;;;;;;;10.70;1.70;;;5.10;99.90;;;;;;5029065;28;20052;-92
2021/01/22 04:36:41;;;;;;;11.15;2.60;;;5.10;99.90;;;;;;5023987;28;20061;-91
2021/01/22 04:39:08;;;;;;;8.30;1.50;;;5.20;99.90;;;;;;5028887;28;20469;-92
2021/01/22 04:41:35;;;;;;;11.50;1.98;;;5.20;99.90;;;;;;5028099;28;20129;-92
2021/01/22 04:44:03;;;;;;;14.55;2.70;;;5.20;99.90;;;;;;5030730;28;20080;-91
2021/01/22 04:46:35;;;;;;;9.43;2.42;;;5.20;99.90;;;;;;5021829;28;20046;-92
2021/01/22 04:49:05;;;;;;;12.63;2.10;;;5.20;99.90;;;;;;5030657;28;20045;-92
2021/01/22 04:51:36;;;;;;;12.15;2.03;;;5.30;99.90;;;;;;5032287;28;20061;-92
2021/01/22 04:54:07;;;;;;;9.95;1.55;;;5.30;99.90;;;;;;5015220;28;20034;-92
2021/01/22 04:56:46;;;;;;;9.02;1.70;;;5.30;99.90;;;;;;5020224;28;20049;-92
2021/01/22 04:59:24;;;;;;;7.30;1.50;;;5.30;99.90;;;;;;5020447;28;20077;-92
2021/01/22 05:01:54;;;;;;;9.48;2.38;;;5.30;99.90;;;;;;5028337;28;20056;-92
2021/01/22 05:04:23;;;;;;;7.45;2.35;;;5.30;99.90;;;;;;5031887;28;20095;-92
2021/01/22 05:06:53;;;;;;;9.27;1.90;;;5.30;99.90;;;;;;5033864;28;20042;-91
2021/01/22 05:09:20;;;;;;;10.20;1.73;;;5.30;99.90;;;;;;5029666;28;20804;-92
2021/01/22 05:11:52;;;;;;;9.52;1.80;;;5.30;99.90;;;;;;5020993;28;20049;-91
2021/01/22 05:14:20;;;;;;;7.85;1.30;;;5.20;99.90;;;;;;5030862;28;20053;-91
2021/01/22 05:17:11;;;;;;;6.20;1.58;;;5.30;99.90;;;;;;5006831;28;20049;-92
2021/01/22 05:19:40;;;;;;;9.05;1.65;;;5.20;99.90;;;;;;5013721;28;20398;-92
2021/01/22 05:22:15;;;;;;;6.10;1.33;;;5.20;99.90;;;;;;5020818;28;20064;-92
2021/01/22 05:24:46;;;;;;;5.22;1.63;;;5.20;99.90;;;;;;5047021;28;20056;-92
2021/01/22 05:27:21;;;;;;;4.50;1.25;;;5.20;99.90;;;;;;5019672;28;20052;-92
2021/01/22 05:30:06;;;;;;;6.22;1.33;;;5.20;99.90;;;;;;5007023;28;20077;-91
2021/01/22 05:32:33;;;;;;;3.50;1.00;;;5.20;99.90;;;;;;4998922;28;20132;-92
2021/01/22 05:35:03;;;;;;;5.23;1.27;;;5.20;99.90;;;;;;5013094;28;20117;-92
2021/01/22 05:37:32;;;;;;;7.97;0.95;;;5.20;99.90;;;;;;5023683;28;20304;-91
2021/01/22 05:40:32;;;;;;;4.30;0.80;;;5.10;99.90;;;;;;5023822;28;20042;-92
2021/01/22 05:43:02;;;;;;;7.13;1.35;;;5.10;99.90;;;;;;5042720;28;20045;-89
2021/01/22 05:46:06;;;;;;;4.63;0.60;;;5.10;99.90;;;;;;5042493;28;20025;-88
2021/01/22 05:49:12;;;;;;;3.92;0.70;;;5.10;99.90;;;;;;4981103;28;20060;-92
2021/01/22 05:52:18;;;;;;;2.55;0.30;;;5.10;99.90;;;;;;5018661;28;20036;-92
2021/01/22 05:55:32;;;;;;;;;;;;;;;;;;;;;
2021/01/22 05:58:35;;;;;;;2.17;0.20;;;5.10;99.90;;;;;;4995858;28;20062;-91
2021/01/22 06:02:10;;;;;;;4.63;0.30;;;5.20;99.90;;;;;;4951733;28;20041;-91
2021/01/22 06:05:39;;;;;;;2.67;0.30;;;5.30;99.90;;;;;;4985704;28;20042;-93
2021/01/22 06:08:39;;;;;;;2.13;0.40;;;5.30;99.90;;;;;;4920566;28;20044;-94
2021/01/22 06:11:25;;;;;;;0.47;0.20;;;5.30;99.90;;;;;;4892480;29;20048;-93
2021/01/22 06:13:54;;;;;;;0.60;0.20;;;5.30;99.90;;;;;;4880664;28;20168;-89
2021/01/22 06:16:25;;;;;;;1.33;0.10;;;5.30;99.90;;;;;;4894008;29;20145;-91
2021/01/22 06:18:55;;;;;;;0.65;0.10;;;5.30;99.90;;;;;;4882555;29;20484;-91
2021/01/22 06:21:28;;;;;;;1.30;0.20;;;5.30;99.90;;;;;;4891954;28;21182;-91
2021/01/22 06:24:01;;;;;;;2.30;0.35;;;5.30;99.90;;;;;;4876281;29;20445;-89
2021/01/22 06:26:30;;;;;;;2.42;1.00;;;5.30;99.90;;;;;;4887812;29;20052;-92
2021/01/22 06:29:01;;;;;;;1.88;0.32;;;5.30;99.90;;;;;;4894797;29;20048;-93
2021/01/22 06:31:30;;;;;;;1.65;0.28;;;5.30;99.90;;;;;;4864543;29;20152;-89
2021/01/22 06:33:57;;;;;;;3.83;0.47;;;5.30;99.90;;;;;;4875700;29;20056;-89
2021/01/22 06:36:24;;;;;;;3.38;0.22;;;5.30;99.90;;;;;;4919599;29;20052;-90
2021/01/22 06:38:52;;;;;;;2.17;0.38;;;5.30;99.90;;;;;;4926225;28;21041;-89
2021/01/22 06:41:25;;;;;;;3.10;0.30;;;5.30;99.90;;;;;;4935658;29;20067;-90
2021/01/22 06:43:52;;;;;;;4.10;0.50;;;5.30;99.90;;;;;;4945919;28;20283;-90
2021/01/22 06:46:25;;;;;;;1.77;0.38;;;5.20;99.90;;;;;;5027485;28;20418;-90
2021/01/22 06:48:57;;;;;;;3.78;0.40;;;5.20;99.90;;;;;;5044248;28;20479;-91
2021/01/22 06:51:25;;;;;;;3.90;0.30;;;5.30;99.90;;;;;;5031244;28;20041;-92
2021/01/22 06:54:18;;;;;;;2.67;0.55;;;5.30;99.90;;;;;;5030646;28;20127;-91
2021/01/22 06:56:51;;;;;;;3.13;0.40;;;5.30;99.90;;;;;;5032064;28;20466;-92
2021/01/22 06:59:21;;;;;;;9.20;0.40;;;5.30;99.90;;;;;;5031471;28;20094;-91
2021/01/22 07:01:49;;;;;;;4.47;0.60;;;5.30;99.90;;;;;;5031029;28;20041;-90
2021/01/22 07:04:37;;;;;;;2.45;0.65;;;5.40;99.90;;;;;;5033192;28;20060;-87
2021/01/22 07:07:08;;;;;;;2.63;0.70;;;5.40;99.90;;;;;;5015449;28;20133;-89
2021/01/22 07:09:49;;;;;;;2.70;0.47;;;5.40;99.90;;;;;;5034140;28;20064;-86
2021/01/22 07:12:38;;;;;;;2.50;0.38;;;5.40;99.90;;;;;;5032078;28;20048;-88
2021/01/22 07:15:19;;;;;;;4.50;0.50;;;5.40;99.90;;;;;;5045649;28;20044;-88
2021/01/22 07:17:54;;;;;;;4.18;0.68;;;5.50;99.90;;;;;;5005862;28;20132;-89
2021/01/22 07:20:23;;;;;;;2.95;0.60;;;5.40;99.90;;;;;;5047161;28;20049;-87
2021/01/22 07:23:00;;;;;;;6.50;1.00;;;5.50;99.90;;;;;;5033922;28;20052;-88
2021/01/22 07:25:35;;;;;;;7.18;0.60;;;5.50;99.90;;;;;;5025715;28;20556;-89
2021/01/22 07:28:24;;;;;;;4.75;0.90;;;5.50;99.90;;;;;;5033392;28;20050;-89
2021/01/22 07:30:50;;;;;;;;;;;5.50;99.90;;;;;;5036408;28;20045;-88
2021/01/22 07:33:26;;;;;;;2.97;0.80;;;5.40;99.90;;;;;;5035573;28;19927;-89
2021/01/22 07:36:09;;;;;;;5.68;0.60;;;5.40;99.90;;;;;;5033545;28;20060;-84
2021/01/22 07:38:39;;;;;;;6.93;0.90;;;5.40;99.90;;;;;;5033583;28;20037;-84
2021/01/22 07:41:07;;;;;;;6.40;0.80;;;5.40;99.90;;;;;;5033617;28;20049;-84
2021/01/22 07:43:34;;;;;;;8.07;1.08;;;5.30;99.90;;;;;;5032266;28;20037;-84
2021/01/22 07:46:12;;;;;;;9.57;0.90;;;5.30;99.90;;;;;;5032883;28;20479;-85
2021/01/22 07:48:40;;;;;;;6.03;0.80;;;5.30;99.90;;;;;;5036117;28;20048;-84
2021/01/22 07:51:29;;;;;;;5.60;0.90;;;5.30;99.90;;;;;;5032714;28;20160;-85
2021/01/22 07:53:57;;;;;;;5.75;0.75;;;5.30;99.90;;;;;;5031921;28;20299;-84
2021/01/22 07:56:41;;;;;;;12.15;2.33;;;5.30;99.90;;;;;;5032473;28;20467;-85
2021/01/22 07:59:12;;;;;;;6.35;1.00;;;5.30;99.90;;;;;;5040514;28;20045;-86
2021/01/22 08:01:39;;;;;;;6.40;0.95;;;5.30;99.90;;;;;;5039493;28;20037;-85
2021/01/22 08:04:06;;;;;;;5.82;0.90;;;5.30;99.90;;;;;;5032385;28;20065;-84
2021/01/22 08:06:49;;;;;;;15.68;1.27;;;5.30;99.90;;;;;;5037666;28;20047;-85
2021/01/22 08:09:18;;;;;;;7.40;1.30;;;5.30;99.90;;;;;;5033409;28;20053;-85
2021/01/22 08:11:48;;;;;;;13.10;1.33;;;5.30;99.90;;;;;;5033880;28;20061;-85
2021/01/22 08:14:32;;;;;;;4.00;1.17;;;5.30;99.90;;;;;;5033795;28;20055;-85
2021/01/22 08:17:02;;;;;;;5.93;0.80;;;5.30;99.90;;;;;;5051076;28;20076;-85
2021/01/22 08:19:28;;;;;;;5.88;1.10;;;5.30;99.90;;;;;;5032143;28;20045;-85
2021/01/22 08:21:56;;;;;;;10.88;1.17;;;5.30;99.90;;;;;;5034201;28;20103;-85
2021/01/22 08:24:24;;;;;;;9.27;1.05;;;5.40;99.90;;;;;;5033610;28;20048;-85
2021/01/22 08:27:04;;;;;;;8.05;0.88;;;5.40;99.90;;;;;;5034344;28;20122;-85
2021/01/22 08:29:34;;;;;;;4.82;0.90;;;5.40;99.90;;;;;;5033227;28;20127;-85
2021/01/22 08:32:03;;;;;;;8.88;1.15;;;5.40;99.90;;;;;;5038648;28;20087;-86
2021/01/22 08:34:30;;;;;;;11.85;1.17;;;5.40;99.90;;;;;;5037197;28;20099;-85
2021/01/22 08:36:57;;;;;;;10.10;1.02;;;5.50;99.90;;;;;;5035752;28;20479;-84
2021/01/22 08:39:24;;;;;;;13.27;1.45;;;5.50;99.90;;;;;;5031650;28;20110;-85
2021/01/22 08:41:51;;;;;;;10.45;1.90;;;5.60;99.90;;;;;;5051165;28;20064;-85
2021/01/22 08:44:27;;;;;;;12.02;1.52;;;5.60;99.90;;;;;;5034331;28;20505;-85
2021/01/22 08:46:57;;;;;;;5.57;1.10;;;5.60;99.90;;;;;;5032370;28;20052;-85
2021/01/22 08:49:24;;;;;;;8.55;1.02;;;5.60;99.90;;;;;;5035211;28;20041;-85
2021/01/22 08:51:50;;;;;;;7.35;0.90;;;5.70;99.90;;;;;;5035255;28;20124;-84
2021/01/22 08:54:17;;;;;;;8.43;1.48;;;5.70;99.90;;;;;;5032100;28;20099;-85
2021/01/22 08:57:02;;;;;;;6.05;0.70;;;5.70;99.90;;;;;;5030605;28;20056;-85
2021/01/22 08:59:29;;;;;;;8.38;1.10;;;5.80;99.90;;;;;;5048929;28;20053;-84
2021/01/22 09:01:58;;;;;;;7.65;1.05;;;5.80;99.90;;;;;;5048335;28;20102;-85
2021/01/22 09:04:34;;;;;;;12.65;1.45;;;5.90;99.90;;;;;;5031495;28;20041;-85
2021/01/22 09:07:03;;;;;;;7.05;0.98;;;5.90;99.90;;;;;;5030913;28;20040;-84
2021/01/22 09:09:42;;;;;;;6.68;0.77;;;6.00;99.90;;;;;;5033219;28;20382;-84
2021/01/22 09:12:10;;;;;;;5.05;0.82;;;6.00;99.90;;;;;;5032867;28;20084;-84
2021/01/22 09:14:44;;;;;;;7.43;0.82;;;6.10;99.90;;;;;;5032266;28;20048;-84
2021/01/22 09:17:39;;;;;;;4.05;0.80;;;6.10;99.90;;;;;;5030146;28;20053;-85
2021/01/22 09:20:13;;;;;;;10.85;1.23;;;6.10;99.90;;;;;;5032731;28;20468;-85
2021/01/22 09:22:40;;;;;;;6.32;0.88;;;6.20;99.90;;;;;;5032388;28;20057;-84
2021/01/22 09:25:10;;;;;;;7.30;1.13;;;6.20;99.90;;;;;;5030575;28;20045;-85
2021/01/22 09:27:39;;;;;;;3.92;0.60;;;6.20;99.90;;;;;;5033639;28;20099;-85
2021/01/22 09:30:11;;;;;;;7.28;0.90;;;6.30;99.90;;;;;;5032044;28;20064;-85
2021/01/22 09:32:38;;;;;;;8.95;0.90;;;6.30;99.90;;;;;;5031490;28;20566;-85
2021/01/22 09:35:06;;;;;;;7.95;1.00;;;6.40;99.90;;;;;;5028905;28;20059;-85
2021/01/22 09:37:33;;;;;;;8.32;1.17;;;6.50;99.90;;;;;;5030603;28;20501;-85
2021/01/22 09:40:00;;;;;;;8.35;1.00;;;6.50;99.90;;;;;;5031227;28;20053;-86
2021/01/22 09:42:27;;;;;;;6.50;1.02;;;6.60;99.90;;;;;;5032383;28;20107;-86
2021/01/22 09:44:54;;;;;;;5.60;1.20;;;6.60;99.90;;;;;;5047549;28;20122;-85
2021/01/22 09:47:20;;;;;;;5.78;0.90;;;6.70;99.90;;;;;;5032588;28;20064;-85
2021/01/22 09:49:47;;;;;;;6.32;0.88;;;6.80;99.90;;;;;;5031878;28;20056;-85
2021/01/22 09:52:14;;;;;;;10.10;1.35;;;6.80;99.90;;;;;;5030946;28;20052;-85
2021/01/22 09:54:45;;;;;;;10.30;1.45;;;6.90;99.90;;;;;;5032877;28;20441;-85
2021/01/22 09:57:12;;;;;;;7.00;1.00;;;7.00;99.90;;;;;;5029911;28;20049;-85
2021/01/22 09:59:38;;;;;;;9.27;0.98;;;7.10;99.90;;;;;;5030933;28;20053;-85
2021/01/22 10:02:05;;;;;;;7.55;0.77;;;7.10;99.90;;;;;;5048797;28;20133;-85
2021/01/22 10:04:34;;;;;;;6.45;1.00;;;7.20;99.90;;;;;;5033824;28;20059;-85
2021/01/22 10:07:03;;;;;;;10.27;1.27;;;7.30;99.90;;;;;;5030356;28;20041;-85
2021/01/22 10:09:31;;;;;;;10.32;1.38;;;7.40;99.90;;;;;;5051755;28;20049;-85
2021/01/22 10:11:58;;;;;;;9.45;1.30;;;7.50;99.90;;;;;;5048103;28;20111;-85
2021/01/22 10:14:25;;;;;;;4.50;0.82;;;7.70;99.90;;;;;;5032428;28;20044;-85
2021/01/22 10:16:52;;;;;;;7.45;1.13;;;7.80;99.90;;;;;;5030742;28;20060;-84
2021/01/22 10:19:19;;;;;;;7.03;0.90;;;7.90;99.90;;;;;;5043702;28;20091;-84
2021/01/22 10:21:45;;;;;;;4.85;0.65;;;8.00;99.90;;;;;;5033483;28;20057;-85
2021/01/22 10:24:12;;;;;;;6.35;0.80;;;7.90;99.90;;;;;;5030576;28;20045;-84
2021/01/22 10:26:38;;;;;;;8.98;0.98;;;7.80;99.90;;;;;;5015490;28;20103;-85
2021/01/22 10:29:05;;;;;;;5.13;0.98;;;7.70;99.90;;;;;;5008061;28;20068;-84
2021/01/22 10:31:31;;;;;;;8.85;1.05;;;7.70;99.90;;;;;;5025353;28;20140;-85
2021/01/22 10:33:59;;;;;;;4.72;0.73;;;7.70;99.90;;;;;;5007615;28;20050;-85
2021/01/22 10:36:25;;;;;;;5.88;1.27;;;7.70;99.90;;;;;;5030748;28;20038;-84
2021/01/22 10:38:52;;;;;;;5.50;0.60;;;7.70;99.90;;;;;;5031242;28;20049;-84
2021/01/22 10:41:18;;;;;;;9.77;0.88;;;7.60;99.90;;;;;;5031906;28;20403;-85
2021/01/22 10:43:45;;;;;;;4.18;0.77;;;7.60;99.90;;;;;;5049919;28;20483;-86
2021/01/22 10:46:13;;;;;;;3.50;0.63;;;7.70;99.90;;;;;;5031001;28;20061;-85
2021/01/22 10:48:39;;;;;;;2.85;0.85;;;7.70;99.90;;;;;;5054220;28;20053;-85
2021/01/22 10:51:07;;;;;;;6.20;0.85;;;7.80;99.90;;;;;;5042730;28;20049;-86
2021/01/22 10:53:33;;;;;;;5.43;0.80;;;7.80;99.90;;;;;;5040189;28;20057;-86
2021/01/22 10:56:02;;;;;;;6.15;0.60;;;7.90;99.90;;;;;;5018813;28;20041;-86
2021/01/22 10:58:28;;;;;;;7.43;1.02;;;7.90;99.90;;;;;;5037090;28;20482;-85
2021/01/22 11:00:55;;;;;;;4.07;0.73;;;8.00;99.90;;;;;;5062015;28;20498;-86
2021/01/22 11:03:22;;;;;;;6.13;0.75;;;8.10;99.90;;;;;;5033958;28;20476;-86
2021/01/22 11:05:48;;;;;;;5.18;0.88;;;8.10;99.90;;;;;;5033694;28;20049;-86
2021/01/22 11:08:15;;;;;;;5.30;0.65;;;8.20;99.90;;;;;;5036163;28;20040;-86
2021/01/22 11:10:41;;;;;;;3.78;1.05;;;8.30;99.90;;;;;;5033359;28;20430;-87
2021/01/22 11:13:08;;;;;;;6.65;0.43;;;8.30;99.90;;;;;;5051644;28;20048;-87
2021/01/22 11:15:34;;;;;;;4.68;1.08;;;8.30;99.90;;;;;;5052978;28;20052;-85
2021/01/22 11:18:04;;;;;;;4.15;0.80;;;8.40;99.90;;;;;;5032788;28;20048;-86
2021/01/22 11:20:31;;;;;;;3.28;0.80;;;8.50;99.90;;;;;;5045370;28;20056;-86
2021/01/22 11:22:58;;;;;;;6.40;0.80;;;8.50;99.90;;;;;;5033727;28;20483;-86
2021/01/22 11:25:24;;;;;;;13.10;1.33;;;8.50;99.90;;;;;;5033347;28;20064;-87
2021/01/22 11:27:50;;;;;;;5.88;0.82;;;8.60;99.90;;;;;;5036514;28;20045;-86
2021/01/22 11:30:17;;;;;;;4.13;1.00;;;8.60;99.90;;;;;;5034341;28;20103;-86
2021/01/22 11:32:44;;;;;;;4.90;0.70;;;8.60;99.90;;;;;;5048757;28;20044;-86
2021/01/22 11:35:13;;;;;;;6.60;1.02;;;8.60;99.90;;;;;;5033630;28;20457;-86
2021/01/22 11:37:47;;;;;;;6.18;1.15;;;8.70;99.90;;;;;;5031336;28;20132;-86
2021/01/22 11:40:14;;;;;;;4.40;0.85;;;8.70;99.90;;;;;;5033626;28;20107;-87
2021/01/22 11:42:41;;;;;;;6.60;1.02;;;8.70;99.90;;;;;;5036293;28;20071;-86
2021/01/22 11:45:08;;;;;;;4.55;0.82;;;8.80;99.90;;;;;;5032988;28;20498;-86
2021/01/22 11:47:35;;;;;;;5.10;0.90;;;8.80;99.90;;;;;;5035056;28;20061;-90
2021/01/22 11:50:03;;;;;;;6.28;0.80;;;8.80;99.90;;;;;;4993410;28;20749;-91
2021/01/22 11:52:30;;;;;;;4.87;1.20;;;8.80;99.90;;;;;;5007668;28;20062;-90
2021/01/22 11:54:56;;;;;;;7.65;1.33;;;8.80;99.90;;;;;;5026198;28;20037;-91
2021/01/22 11:57:23;;;;;;;11.32;1.60;;;8.80;99.90;;;;;;5025041;28;20052;-91
2021/01/22 11:59:50;;;;;;;4.57;0.95;;;8.90;99.90;;;;;;5023848;28;20041;-91
2021/01/22 12:02:17;;;;;;;10.18;1.60;;;8.90;99.90;;;;;;5023580;28;20126;-90
2021/01/22 12:04:47;;;;;;;11.63;1.63;;;9.00;99.90;;;;;;5025698;28;20091;-91
2021/01/22 12:07:15;;;;;;;5.38;1.15;;;9.10;99.90;;;;;;5028995;28;20048;-90
2021/01/22 12:09:44;;;;;;;11.93;1.83;;;9.20;99.90;;;;;;5029277;28;20049;-92
2021/01/22 12:12:11;;;;;;;8.93;1.85;;;9.20;99.90;;;;;;5000909;28;20083;-91
2021/01/22 12:14:38;;;;;;;8.70;1.70;;;9.30;99.90;;;;;;5027332;28;20065;-90
2021/01/22 12:17:05;;;;;;;11.07;1.70;;;9.40;99.90;;;;;;5014863;28;20056;-91
2021/01/22 12:19:34;;;;;;;9.00;1.50;;;9.50;99.90;;;;;;5003209;28;20048;-90
2021/01/22 12:22:05;;;;;;;10.88;1.35;;;9.60;99.90;;;;;;5031646;28;20053;-90
2021/01/22 12:24:31;;;;;;;;;;;9.60;99.90;;;;;;5037289;28;20045;-90
2021/01/22 12:26:58;;;;;;;5.72;1.20;;;9.60;99.90;;;;;;5024713;28;20381;-90
2021/01/22 12:29:25;;;;;;;8.48;1.63;;;9.60;99.90;;;;;;5031557;28;20051;-89
2021/01/22 12:31:52;;;;;;;8.27;1.50;;;9.70;99.90;;;;;;5032843;28;20033;-92
2021/01/22 12:34:19;;;;;;;8.07;0.93;;;9.60;99.90;;;;;;5031761;28;20143;-90
2021/01/22 12:36:50;;;;;;;9.15;1.25;;;9.60;99.90;;;;;;5035878;28;20168;-90
2021/01/22 12:39:17;;;;;;;10.93;1.17;;;9.70;99.90;;;;;;5026826;28;20044;-90
2021/01/22 12:41:44;;;;;;;6.68;1.50;;;9.70;99.90;;;;;;5031141;28;20060;-90
2021/01/22 12:44:10;;;;;;;8.57;1.65;;;9.80;99.90;;;;;;5031312;28;20048;-89
2021/01/22 12:46:38;;;;;;;8.48;1.38;;;9.80;99.90;;;;;;5032843;28;20045;-90
2021/01/22 12:49:05;;;;;;;6.10;1.10;;;9.70;99.90;;;;;;5033229;28;20695;-90
2021/01/22 12:51:32;;;;;;;6.78;1.52;;;9.70;99.90;;;;;;5035727;28;20042;-90
2021/01/22 12:53:58;;;;;;;10.65;1.20;;;9.70;99.90;;;;;;5014475;28;20080;-90
2021/01/22 12:56:25;;;;;;;10.57;1.48;;;9.60;99.90;;;;;;5012246;28;20053;-90
2021/01/22 12:58:52;;;;;;;9.30;1.25;;;9.50;99.90;;;;;;5015383;28;20131;-90
2021/01/22 13:01:19;;;;;;;7.65;0.85;;;9.40;99.90;;;;;;5030562;28;20493;-89
2021/01/22 13:03:47;;;;;;;6.95;1.05;;;9.30;99.90;;;;;;5034359;28;20096;-90
2021/01/22 13:06:15;;;;;;;7.88;0.95;;;9.10;99.90;;;;;;5032417;28;20453;-90
2021/01/22 13:08:41;;;;;;;5.90;1.00;;;9.00;99.90;;;;;;5031181;28;20052;-89
2021/01/22 13:11:08;;;;;;;6.22;1.08;;;8.90;99.90;;;;;;5030319;28;20057;-90
2021/01/22 13:13:36;;;;;;;9.55;1.17;;;8.90;99.90;;;;;;5031110;28;20437;-90
2021/01/22 13:16:03;;;;;;;9.18;1.10;;;8.90;99.90;;;;;;5031144;28;20045;-90
2021/01/22 13:18:30;;;;;;;4.35;1.23;;;8.90;99.90;;;;;;5033799;28;20044;-90